Time,TemperatureF,DewpointF,PressureIn,WindDirection,WindDirectionDegrees,WindSpeedMPH,WindSpeedGustMPH,Humidity,HourlyPrecipIn,Conditions,Clouds,dailyrainin,SolarRadiationWatts/m^2,SoftwareType,DateUTC
2013-11-01 00:00:00,71.3,67.2,30.01,SE,125,3.8,3.8,87,0.00,CLR,OVC,0.00,0.0,WeatherDisplay:10.37,2013-11-01 04:00:00,
2013-11-01 00:01:00,71.2,67.1,30.01,South,176,2.6,6.9,87,0.00,CLR,OVC,0.00,0.0,WeatherDisplay:10.37,2013-11-01 04:01:00,
2013-11-01 00:06:00,71.3,66.9,30.00,SSE,167,2.9,5.8,86,0.00,CLR,OVC,0.00,0.0,WeatherDisplay:10.37,2013-11-01 04:06:00,
2013-11-01 00:11:00,71.3,66.9,30.00,South,178,4.7,8.1,86,0.00,CLR,OVC,0.00,0.0,WeatherDisplay:10.37,2013-11-01 04:11:00,
2013-11-01 00:16:00,71.3,66.9,30.00,SE,140,2.9,4.6,86,0.00,CLR,OVC,0.00,0.0,WeatherDisplay:10.37,2013-11-01 04:16:00,
2013-11-01 00:21:00,71.4,67.0,30.00,SSE,156,2.6,3.5,86,0.00,CLR,OVC,0.00,0.0,WeatherDisplay:10.37,2013-11-01 04:21:00,
2013-11-01 00:26:00,71.4,67.0,30.00,SSE,154,1.5,5.8,86,0.00,CLR,OVC,0.00,0.0,WeatherDisplay:10.37,2013-11-01 04:26:00,
2013-11-01 00:31:00,71.5,67.1,29.99,SSE,167,1.8,7.0,86,0.00,CLR,OVC,0.00,0.0,WeatherDisplay:10.37,2013-11-01 04:31:00,
2013-11-01 00:36:00,71.5,67.1,30.00,ESE,113,3.1,3.5,86,0.00,CLR,OVC,0.00,0.0,WeatherDisplay:10.37,2013-11-01 04:36:00,
2013-11-01 00:41:00,71.5,67.1,29.99,SE,146,2.0,4.0,86,0.00,CLR,OVC,0.00,0.0,WeatherDisplay:10.37,2013-11-01 04:41:00,
2013-11-01 00:46:00,71.6,67.2,29.99,South,188,5.3,6.9,86,0.00,CLR,OVC,0.00,0.0,WeatherDisplay:10.37,2013-11-01 04:46:00,
2013-11-01 00:51:00,71.6,66.8,29.99,SE,139,2.4,3.5,85,0.00,CLR,OVC,0.00,0.0,WeatherDisplay:10.37,2013-11-01 04:51:00,
2013-11-01 00:56:00,71.7,66.9,29.99,South,186,1.8,3.5,85,0.00,CLR,OVC,0.00,0.0,WeatherDisplay:10.37,2013-11-01 04:56:00,
2013-11-01 01:01:00,71.7,66.9,29.98,SE,146,0.5,4.6,85,0.00,CLR,OVC,0.00,0.0,WeatherDisplay:10.37,2013-11-01 05:01:00,
2013-11-01 01:06:00,71.8,67.0,29.98,SSE,161,2.6,4.6,85,0.00,CLR,OVC,0.00,0.0,WeatherDisplay:10.37,2013-11-01 05:06:00,
2013-11-01 01:11:00,71.8,67.0,29.98,SSE,157,3.9,5.0,85,0.00,CLR,OVC,0.00,0.0,WeatherDisplay:10.37,2013-11-01 05:11:00,
2013-11-01 01:16:00,71.9,67.1,29.98,SSE,168,3.0,5.8,85,0.00,CLR,OVC,0.00,0.0,WeatherDisplay:10.37,2013-11-01 05:16:00,
2013-11-01 01:22:00,71.9,67.1,29.98,SSE,153,3.1,4.6,85,0.00,CLR,OVC,0.00,0.0,WeatherDisplay:10.37,2013-11-01 05:22:00,
2013-11-01 01:27:00,71.9,67.1,29.97,SSE,147,3.1,6.9,85,0.00,CLR,OVC,0.00,0.0,WeatherDisplay:10.37,2013-11-01 05:27:00,
2013-11-01 01:32:00,71.9,66.8,29.97,SSE,153,0.4,3.5,84,0.00,CLR,OVC,0.00,0.0,WeatherDisplay:10.37,2013-11-01 05:32:00,
2013-11-01 01:37:00,72.0,66.9,29.97,SSE,161,1.1,3.5,84,0.00,CLR,OVC,0.00,0.0,WeatherDisplay:10.37,2013-11-01 05:37:00,
2013-11-01 01:42:00,72.1,66.6,29.97,SSW,204,2.4,3.5,83,0.00,CLR,OVC,0.00,0.0,WeatherDisplay:10.37,2013-11-01 05:42:00,
2013-11-01 01:45:00,72.1,66.6,29.97,ESE,119,2.1,4.6,83,0.00,CLR,OVC,0.00,0.0,WeatherDisplay:10.37,2013-11-01 05:45:00,
2013-11-01 01:50:00,72.2,66.7,29.97,SW,217,2.6,5.0,83,0.00,CLR,OVC,0.00,0.0,WeatherDisplay:10.37,2013-11-01 05:50:00,
2013-11-01 01:55:00,72.4,66.6,29.97,SSW,210,1.4,3.5,82,0.00,CLR,OVC,0.00,0.0,WeatherDisplay:10.37,2013-11-01 05:55:00,
2013-11-01 02:00:00,72.5,66.7,29.97,SW,225,1.5,3.5,82,0.00,CLR,OVC,0.00,0.0,WeatherDisplay:10.37,2013-11-01 06:00:00,
2013-11-01 02:05:00,72.6,67.1,29.97,SSW,193,7.3,12.7,83,0.00,CLR,OVC,0.00,0.0,WeatherDisplay:10.37,2013-11-01 06:05:00,
2013-11-01 02:10:00,72.2,67.4,29.98,SW,217,3.2,8.1,85,0.01,RA,OVC,0.01,0.0,WeatherDisplay:10.37,2013-11-01 06:10:00,
2013-11-01 02:15:00,71.2,67.5,29.98,WSW,240,4.3,8.1,88,0.01,RA,OVC,0.01,0.0,WeatherDisplay:10.37,2013-11-01 06:15:00,
2013-11-01 02:20:00,70.4,67.3,29.98,WNW,300,2.6,5.8,90,0.02,RA,OVC,0.03,0.0,WeatherDisplay:10.37,2013-11-01 06:20:00,
2013-11-01 02:25:00,69.9,67.5,29.98,SW,216,5.3,11.5,92,0.04,RA,OVC,0.04,0.0,WeatherDisplay:10.37,2013-11-01 06:25:00,
2013-11-01 02:30:00,69.4,67.3,29.97,SSW,202,6.4,13.8,93,0.05,RA,OVC,0.05,0.0,WeatherDisplay:10.37,2013-11-01 06:30:00,
2013-11-01 02:35:00,68.8,66.7,29.98,SSW,200,6.1,10.4,93,0.07,RA,OVC,0.08,0.0,WeatherDisplay:10.37,2013-11-01 06:35:00,
2013-11-01 02:40:00,68.4,66.6,29.97,SE,142,4.3,8.1,94,0.09,RA,OVC,0.09,0.0,WeatherDisplay:10.37,2013-11-01 06:40:00,
2013-11-01 02:45:00,68.1,66.3,29.96,South,171,3.1,5.8,94,0.10,RA,OVC,0.10,0.0,WeatherDisplay:10.37,2013-11-01 06:45:00,
2013-11-01 02:50:00,68.0,66.2,29.94,SSW,202,3.7,11.5,94,0.10,RA,OVC,0.10,0.0,WeatherDisplay:10.37,2013-11-01 06:50:00,
2013-11-01 02:55:00,67.9,66.1,29.93,SSE,163,1.6,3.5,94,0.10,CLR,OVC,0.10,0.0,WeatherDisplay:10.37,2013-11-01 06:55:00,
2013-11-01 03:00:00,67.8,66.0,29.93,SSE,162,0.3,1.0,94,0.10,CLR,OVC,0.10,0.0,WeatherDisplay:10.37,2013-11-01 07:00:00,
2013-11-01 03:05:00,67.8,66.0,29.93,SE,142,0.8,3.5,94,0.10,CLR,OVC,0.10,0.0,WeatherDisplay:10.37,2013-11-01 07:05:00,
2013-11-01 03:10:00,67.7,66.2,29.93,SSE,155,1.5,3.5,95,0.09,CLR,OVC,0.10,0.0,WeatherDisplay:10.37,2013-11-01 07:10:00,
2013-11-01 03:15:00,67.7,66.2,29.93,SSE,155,2.0,4.6,95,0.09,CLR,OVC,0.10,0.0,WeatherDisplay:10.37,2013-11-01 07:15:00,
2013-11-01 03:20:00,67.7,66.2,29.93,SSE,163,0.8,2.3,95,0.08,CLR,OVC,0.10,0.0,WeatherDisplay:10.37,2013-11-01 07:20:00,
2013-11-01 03:25:00,67.7,66.2,29.93,South,171,0.8,3.5,95,0.06,CLR,OVC,0.10,0.0,WeatherDisplay:10.37,2013-11-01 07:25:00,
2013-11-01 03:30:00,67.8,66.6,29.93,ESE,121,2.6,4.6,96,0.05,CLR,OVC,0.10,0.0,WeatherDisplay:10.37,2013-11-01 07:30:00,
2013-11-01 03:35:00,68.0,66.8,29.92,SSE,153,3.3,7.0,96,0.03,CLR,OVC,0.10,0.0,WeatherDisplay:10.37,2013-11-01 07:35:00,
2013-11-01 03:40:00,68.1,66.9,29.92,South,171,1.0,3.5,96,0.01,CLR,OVC,0.10,0.0,WeatherDisplay:10.37,2013-11-01 07:40:00,
2013-11-01 03:45:00,68.2,67.0,29.92,South,189,1.0,3.0,96,0.00,CLR,OVC,0.10,0.0,WeatherDisplay:10.37,2013-11-01 07:45:00,
2013-11-01 03:50:00,68.3,67.1,29.91,SE,142,1.4,6.9,96,0.00,CLR,OVC,0.10,0.0,WeatherDisplay:10.37,2013-11-01 07:50:00,
2013-11-01 03:55:00,68.5,67.6,29.91,SSE,150,1.9,4.6,97,0.00,CLR,OVC,0.10,0.0,WeatherDisplay:10.37,2013-11-01 07:55:00,
2013-11-01 04:00:00,68.6,67.7,29.91,South,190,1.7,4.0,97,0.00,CLR,OVC,0.10,0.0,WeatherDisplay:10.37,2013-11-01 08:00:00,
2013-11-01 04:05:00,68.7,67.8,29.90,SE,144,0.0,1.1,97,0.00,CLR,OVC,0.10,0.0,WeatherDisplay:10.37,2013-11-01 08:05:00,
2013-11-01 04:10:00,68.8,67.9,29.90,SSE,160,1.2,3.0,97,0.00,CLR,OVC,0.10,0.0,WeatherDisplay:10.37,2013-11-01 08:10:00,
2013-11-01 04:15:00,68.8,67.9,29.90,SSW,192,3.2,4.6,97,0.00,CLR,OVC,0.10,0.0,WeatherDisplay:10.37,2013-11-01 08:15:00,
2013-11-01 04:20:00,68.8,67.9,29.90,South,181,1.8,3.5,97,0.00,CLR,OVC,0.10,0.0,WeatherDisplay:10.37,2013-11-01 08:20:00,
2013-11-01 04:25:00,68.8,67.6,29.90,SSE,161,0.7,4.6,96,0.00,CLR,OVC,0.10,0.0,WeatherDisplay:10.37,2013-11-01 08:25:00,
2013-11-01 04:30:00,68.7,67.5,29.90,SSE,154,0.1,2.3,96,0.00,CLR,OVC,0.10,0.0,WeatherDisplay:10.37,2013-11-01 08:30:00,
2013-11-01 04:35:00,68.7,67.5,29.90,South,172,2.4,4.6,96,0.00,CLR,OVC,0.10,0.0,WeatherDisplay:10.37,2013-11-01 08:35:00,
2013-11-01 04:40:00,68.6,67.4,29.90,South,186,0.4,2.3,96,0.00,CLR,OVC,0.10,0.0,WeatherDisplay:10.37,2013-11-01 08:40:00,
2013-11-01 04:45:00,68.6,67.4,29.90,South,188,1.3,6.9,96,0.00,CLR,OVC,0.10,0.0,WeatherDisplay:10.37,2013-11-01 08:45:00,
2013-11-01 04:50:00,68.7,67.5,29.90,SSW,198,2.0,2.3,96,0.00,CLR,OVC,0.10,0.0,WeatherDisplay:10.37,2013-11-01 08:50:00,
2013-11-01 04:55:00,68.7,67.8,29.89,SSE,165,3.0,4.6,97,0.00,CLR,OVC,0.10,0.0,WeatherDisplay:10.37,2013-11-01 08:55:00,
2013-11-01 05:00:00,68.7,67.5,29.89,SSW,195,3.2,4.0,96,0.00,CLR,OVC,0.10,0.0,WeatherDisplay:10.37,2013-11-01 09:00:00,
2013-11-01 05:05:00,68.7,67.5,29.89,SW,218,2.0,4.6,96,0.00,CLR,OVC,0.10,0.0,WeatherDisplay:10.37,2013-11-01 09:05:00,
2013-11-01 05:10:00,68.7,67.5,29.89,South,180,3.0,8.1,96,0.00,CLR,OVC,0.10,0.0,WeatherDisplay:10.37,2013-11-01 09:10:00,
2013-11-01 05:15:00,68.7,67.2,29.89,SSE,163,2.2,6.9,95,0.00,CLR,OVC,0.10,0.0,WeatherDisplay:10.37,2013-11-01 09:15:00,
2013-11-01 05:21:00,68.7,67.2,29.89,South,183,2.5,3.5,95,0.00,CLR,OVC,0.10,0.0,WeatherDisplay:10.37,2013-11-01 09:21:00,
2013-11-01 05:26:00,68.7,67.2,29.88,South,185,2.0,4.0,95,0.00,CLR,OVC,0.10,0.0,WeatherDisplay:10.37,2013-11-01 09:26:00,
2013-11-01 05:31:00,68.7,67.2,29.88,SE,133,0.1,1.1,95,0.00,CLR,OVC,0.10,0.0,WeatherDisplay:10.37,2013-11-01 09:31:00,
2013-11-01 05:36:00,68.7,67.5,29.88,South,178,0.0,0.0,96,0.00,CLR,OVC,0.10,0.0,WeatherDisplay:10.37,2013-11-01 09:36:00,
2013-11-01 05:41:00,68.7,67.5,29.87,SE,142,0.8,3.5,96,0.00,CLR,OVC,0.10,0.0,WeatherDisplay:10.37,2013-11-01 09:41:00,
2013-11-01 05:46:00,68.8,67.6,29.88,SSE,158,1.6,3.5,96,0.00,CLR,OVC,0.10,0.0,WeatherDisplay:10.37,2013-11-01 09:46:00,
2013-11-01 05:51:00,68.9,67.7,29.88,SSW,196,4.0,6.9,96,0.00,CLR,OVC,0.10,0.0,WeatherDisplay:10.37,2013-11-01 09:51:00,
2013-11-01 05:56:00,69.0,67.8,29.88,SSE,155,0.5,2.3,96,0.00,CLR,OVC,0.10,0.0,WeatherDisplay:10.37,2013-11-01 09:56:00,
2013-11-01 06:01:00,69.1,67.9,29.87,SE,136,1.6,3.5,96,0.00,CLR,OVC,0.10,0.0,WeatherDisplay:10.37,2013-11-01 10:01:00,
2013-11-01 06:06:00,69.2,68.3,29.87,SSE,163,0.9,3.5,97,0.00,CLR,OVC,0.10,0.0,WeatherDisplay:10.37,2013-11-01 10:06:00,
2013-11-01 06:11:00,69.3,68.1,29.86,SSE,151,0.5,2.3,96,0.00,CLR,OVC,0.10,0.0,WeatherDisplay:10.37,2013-11-01 10:11:00,
2013-11-01 06:16:00,69.4,68.2,29.86,SSE,165,0.8,3.5,96,0.00,CLR,OVC,0.10,0.0,WeatherDisplay:10.37,2013-11-01 10:16:00,
2013-11-01 06:21:00,69.4,68.2,29.86,South,169,0.3,2.3,96,0.00,CLR,OVC,0.10,0.0,WeatherDisplay:10.37,2013-11-01 10:21:00,
2013-11-01 06:26:00,69.5,68.3,29.86,SW,215,1.7,4.6,96,0.00,CLR,OVC,0.10,0.0,WeatherDisplay:10.37,2013-11-01 10:26:00,
2013-11-01 06:31:00,69.5,68.3,29.86,South,169,2.7,5.8,96,0.00,CLR,OVC,0.10,0.0,WeatherDisplay:10.37,2013-11-01 10:31:00,
2013-11-01 06:36:00,69.6,68.7,29.86,SSE,167,2.9,5.8,97,0.00,CLR,OVC,0.10,0.0,WeatherDisplay:10.37,2013-11-01 10:36:00,
2013-11-01 06:41:00,69.8,68.9,29.86,SSE,157,4.6,9.2,97,0.00,CLR,OVC,0.10,0.0,WeatherDisplay:10.37,2013-11-01 10:41:00,
2013-11-01 06:46:00,70.1,69.2,29.86,SSE,156,2.9,5.8,97,0.00,CLR,OVC,0.10,0.0,WeatherDisplay:10.37,2013-11-01 10:46:00,
2013-11-01 06:51:00,70.2,69.0,29.86,SSW,194,3.1,4.6,96,0.00,CLR,OVC,0.10,0.0,WeatherDisplay:10.37,2013-11-01 10:51:00,
2013-11-01 06:56:00,70.5,69.3,29.86,SW,219,3.4,8.1,96,0.00,CLR,OVC,0.10,0.0,WeatherDisplay:10.37,2013-11-01 10:56:00,
2013-11-01 07:01:00,70.7,69.5,29.86,South,188,5.7,8.1,96,0.00,OVC,,0.10,0.0,WeatherDisplay:10.37,2013-11-01 11:01:00,
2013-11-01 07:06:00,71.0,69.5,29.86,SSW,193,5.6,11.5,95,0.00,OVC,,0.10,0.0,WeatherDisplay:10.37,2013-11-01 11:06:00,
2013-11-01 07:11:00,71.2,69.4,29.87,South,181,3.9,8.1,94,0.00,OVC,,0.10,0.0,WeatherDisplay:10.37,2013-11-01 11:11:00,
2013-11-01 07:16:00,71.3,69.5,29.86,South,189,3.7,11.5,94,0.00,OVC,,0.10,0.0,WeatherDisplay:10.37,2013-11-01 11:16:00,
2013-11-01 07:21:00,71.4,69.3,29.86,SW,223,2.9,9.2,93,0.00,OVC,,0.10,0.0,WeatherDisplay:10.37,2013-11-01 11:21:00,
2013-11-01 07:26:00,71.5,69.4,29.86,SSW,194,4.3,5.8,93,0.00,OVC,,0.10,0.0,WeatherDisplay:10.37,2013-11-01 11:26:00,
2013-11-01 07:31:00,71.5,69.4,29.86,SSE,163,6.2,11.5,93,0.00,OVC,,0.10,0.0,WeatherDisplay:10.37,2013-11-01 11:31:00,
2013-11-01 07:36:00,71.6,69.5,29.87,SSE,159,4.3,11.5,93,0.00,OVC,,0.10,0.0,WeatherDisplay:10.37,2013-11-01 11:36:00,
2013-11-01 07:41:00,71.7,69.6,29.86,South,190,3.8,10.4,93,0.00,OVC,,0.10,0.0,WeatherDisplay:10.37,2013-11-01 11:41:00,
2013-11-01 07:46:00,71.7,69.6,29.87,South,184,5.0,6.9,93,0.00,OVC,,0.10,0.0,WeatherDisplay:10.37,2013-11-01 11:46:00,
2013-11-01 07:51:00,71.8,69.7,29.87,South,169,2.9,7.0,93,0.00,OVC,,0.10,0.0,WeatherDisplay:10.37,2013-11-01 11:51:00,
2013-11-01 07:56:00,71.8,69.7,29.87,South,177,4.6,9.2,93,0.00,OVC,,0.10,0.0,WeatherDisplay:10.37,2013-11-01 11:56:00,
2013-11-01 08:01:00,71.9,69.8,29.87,SSW,193,7.8,10.4,93,0.00,OVC,,0.10,0.0,WeatherDisplay:10.37,2013-11-01 12:01:00,
2013-11-01 08:06:00,72.1,70.0,29.87,SW,228,4.6,9.2,93,0.00,OVC,,0.10,0.0,WeatherDisplay:10.37,2013-11-01 12:06:00,
2013-11-01 08:11:00,72.1,70.0,29.87,SSW,202,3.7,7.0,93,0.00,OVC,,0.10,0.0,WeatherDisplay:10.37,2013-11-01 12:11:00,
2013-11-01 08:16:00,72.2,69.7,29.88,SSW,193,4.6,5.8,92,0.00,OVC,,0.10,0.0,WeatherDisplay:10.37,2013-11-01 12:16:00,
2013-11-01 08:21:00,72.2,69.7,29.88,SW,219,6.0,10.4,92,0.00,OVC,,0.10,0.0,WeatherDisplay:10.37,2013-11-01 12:21:00,
2013-11-01 08:26:00,72.3,69.8,29.88,SW,223,5.2,8.1,92,0.00,OVC,,0.10,0.0,WeatherDisplay:10.37,2013-11-01 12:26:00,
2013-11-01 08:31:00,72.4,69.9,29.88,SSW,211,3.3,11.5,92,0.00,OVC,,0.10,0.0,WeatherDisplay:10.37,2013-11-01 12:31:00,
2013-11-01 08:36:00,72.5,70.0,29.88,South,171,4.0,5.8,92,0.00,OVC,,0.10,0.0,WeatherDisplay:10.37,2013-11-01 12:36:00,
2013-11-01 08:41:00,72.5,70.0,29.89,SW,218,4.1,9.2,92,0.00,OVC,,0.10,0.0,WeatherDisplay:10.37,2013-11-01 12:41:00,
2013-11-01 08:46:00,72.6,70.1,29.89,SSW,192,3.8,8.0,92,0.00,OVC,,0.10,0.0,WeatherDisplay:10.37,2013-11-01 12:46:00,
2013-11-01 08:51:00,72.7,70.2,29.89,SSW,209,6.5,9.2,92,0.00,OVC,,0.10,0.0,WeatherDisplay:10.37,2013-11-01 12:51:00,
2013-11-01 08:56:00,72.8,70.0,29.89,SW,236,6.2,9.2,91,0.00,OVC,,0.10,0.0,WeatherDisplay:10.37,2013-11-01 12:56:00,
2013-11-01 09:01:00,72.9,70.1,29.90,SSW,200,7.1,9.2,91,0.00,OVC,,0.10,0.0,WeatherDisplay:10.37,2013-11-01 13:01:00,
2013-11-01 09:06:00,73.1,70.0,29.89,South,182,5.8,11.5,90,0.00,OVC,,0.10,0.0,WeatherDisplay:10.37,2013-11-01 13:06:00,
2013-11-01 09:11:00,73.2,70.1,29.90,WSW,239,8.0,16.1,90,0.00,OVC,,0.10,0.0,WeatherDisplay:10.37,2013-11-01 13:11:00,
2013-11-01 09:16:00,73.3,69.9,29.90,SSW,207,4.0,16.1,89,0.00,OVC,,0.10,0.0,WeatherDisplay:10.37,2013-11-01 13:16:00,
2013-11-01 09:21:00,73.4,70.0,29.90,SW,222,3.4,7.0,89,0.00,OVC,,0.10,0.0,WeatherDisplay:10.37,2013-11-01 13:21:00,
2013-11-01 09:26:00,73.6,70.2,29.90,SW,232,5.3,9.2,89,0.00,OVC,,0.10,0.0,WeatherDisplay:10.37,2013-11-01 13:26:00,
2013-11-01 09:31:00,73.7,69.9,29.90,SW,225,5.6,11.5,88,0.00,OVC,,0.10,0.0,WeatherDisplay:10.37,2013-11-01 13:31:00,
2013-11-01 09:36:00,73.8,70.4,29.90,SSE,167,1.9,10.4,89,0.00,OVC,,0.10,0.0,WeatherDisplay:10.37,2013-11-01 13:36:00,
2013-11-01 09:41:00,73.9,70.1,29.90,SW,232,6.0,9.2,88,0.00,OVC,,0.10,0.0,WeatherDisplay:10.37,2013-11-01 13:41:00,
2013-11-01 09:46:00,74.0,70.2,29.90,SSE,163,4.5,5.8,88,0.00,OVC,,0.10,0.0,WeatherDisplay:10.37,2013-11-01 13:46:00,
2013-11-01 09:51:00,74.2,70.4,29.90,SW,235,6.1,10.4,88,0.00,OVC,,0.10,0.0,WeatherDisplay:10.37,2013-11-01 13:51:00,
2013-11-01 09:56:00,74.5,70.4,29.90,SSE,165,4.3,10.4,87,0.00,OVC,,0.10,0.0,WeatherDisplay:10.37,2013-11-01 13:56:00,
2013-11-01 10:01:00,74.8,70.7,29.90,SW,223,7.9,11.5,87,0.00,OVC,,0.10,0.0,WeatherDisplay:10.37,2013-11-01 14:01:00,
2013-11-01 10:06:00,74.9,70.4,29.90,South,177,6.1,9.0,86,0.00,OVC,,0.10,0.0,WeatherDisplay:10.37,2013-11-01 14:06:00,
2013-11-01 10:11:00,75.1,70.6,29.90,SW,219,6.0,10.4,86,0.00,OVC,,0.10,0.0,WeatherDisplay:10.37,2013-11-01 14:11:00,
2013-11-01 10:16:00,75.1,70.3,29.89,SW,217,9.9,11.5,85,0.00,OVC,,0.10,0.0,WeatherDisplay:10.37,2013-11-01 14:16:00,
2013-11-01 10:21:00,75.3,70.5,29.89,SW,225,9.3,11.0,85,0.00,OVC,,0.10,0.0,WeatherDisplay:10.37,2013-11-01 14:21:00,
2013-11-01 10:26:00,75.5,70.3,29.89,SSW,211,7.4,10.4,84,0.00,OVC,,0.10,0.0,WeatherDisplay:10.37,2013-11-01 14:26:00,
2013-11-01 10:31:00,75.5,70.3,29.89,SSE,167,7.4,12.7,84,0.00,OVC,,0.10,0.0,WeatherDisplay:10.37,2013-11-01 14:31:00,
2013-11-01 10:36:00,75.5,70.3,29.89,WSW,240,8.0,10.0,84,0.00,OVC,,0.10,0.0,WeatherDisplay:10.37,2013-11-01 14:36:00,
2013-11-01 10:41:00,75.6,70.4,29.89,SSW,198,6.0,11.5,84,0.00,OVC,,0.10,0.0,WeatherDisplay:10.37,2013-11-01 14:41:00,
2013-11-01 10:46:00,75.6,70.4,29.88,South,169,4.6,6.0,84,0.00,OVC,,0.10,0.0,WeatherDisplay:10.37,2013-11-01 14:46:00,
2013-11-01 10:51:00,75.6,70.4,29.88,SW,222,4.6,11.5,84,0.00,OVC,,0.10,0.0,WeatherDisplay:10.37,2013-11-01 14:51:00,
2013-11-01 10:56:00,75.6,70.4,29.89,West,262,5.0,8.1,84,0.00,OVC,,0.10,0.0,WeatherDisplay:10.37,2013-11-01 14:56:00,
2013-11-01 11:01:00,75.7,70.2,29.88,SSE,158,6.4,11.5,83,0.00,OVC,,0.10,0.0,WeatherDisplay:10.37,2013-11-01 15:01:00,
2013-11-01 11:06:00,75.7,70.5,29.88,SW,215,5.6,9.2,84,0.00,OVC,,0.10,0.0,WeatherDisplay:10.37,2013-11-01 15:06:00,
2013-11-01 11:11:00,75.8,70.6,29.88,SSW,206,4.0,6.9,84,0.00,OVC,,0.10,0.0,WeatherDisplay:10.37,2013-11-01 15:11:00,
2013-11-01 11:16:00,75.8,70.3,29.88,South,169,5.5,11.5,83,0.00,OVC,,0.10,0.0,WeatherDisplay:10.37,2013-11-01 15:16:00,
2013-11-01 11:21:00,75.9,70.4,29.88,SSE,160,5.7,9.2,83,0.00,OVC,,0.10,0.0,WeatherDisplay:10.37,2013-11-01 15:21:00,
2013-11-01 11:26:00,75.9,70.4,29.88,WSW,257,8.8,15.0,83,0.00,OVC,,0.10,0.0,WeatherDisplay:10.37,2013-11-01 15:26:00,
2013-11-01 11:32:00,75.9,70.7,29.88,SW,223,5.7,15.0,84,0.00,OVC,,0.10,0.0,WeatherDisplay:10.37,2013-11-01 15:32:00,
2013-11-01 11:37:00,76.0,70.8,29.88,South,182,8.0,12.7,84,0.00,OVC,,0.10,0.0,WeatherDisplay:10.37,2013-11-01 15:37:00,
2013-11-01 11:42:00,76.0,70.8,29.88,SW,218,6.1,11.5,84,0.00,OVC,,0.10,0.0,WeatherDisplay:10.37,2013-11-01 15:42:00,
2013-11-01 11:47:00,75.8,70.6,29.88,SW,216,5.3,10.4,84,0.00,OVC,,0.10,0.0,WeatherDisplay:10.37,2013-11-01 15:47:00,
2013-11-01 11:52:00,75.7,70.5,29.88,South,179,9.4,18.4,84,0.00,OVC,,0.10,0.0,WeatherDisplay:10.37,2013-11-01 15:52:00,
2013-11-01 11:57:00,75.6,70.8,29.88,SSW,198,8.4,13.8,85,0.00,OVC,,0.10,0.0,WeatherDisplay:10.37,2013-11-01 15:57:00,
2013-11-01 12:02:00,75.4,70.6,29.88,South,189,10.9,15.0,85,0.00,OVC,,0.10,0.0,WeatherDisplay:10.37,2013-11-01 16:02:00,
2013-11-01 12:07:00,75.3,70.5,29.87,South,188,6.6,9.2,85,0.00,OVC,,0.10,0.0,WeatherDisplay:10.37,2013-11-01 16:07:00,
2013-11-01 12:12:00,75.3,70.8,29.87,SSW,196,4.0,6.9,86,0.00,OVC,,0.10,0.0,WeatherDisplay:10.37,2013-11-01 16:12:00,
2013-11-01 12:17:00,75.4,70.6,29.86,South,169,8.6,15.0,85,0.00,OVC,,0.10,0.0,WeatherDisplay:10.37,2013-11-01 16:17:00,
2013-11-01 12:22:00,75.5,71.0,29.86,South,172,6.6,13.8,86,0.00,OVC,,0.10,0.0,WeatherDisplay:10.37,2013-11-01 16:22:00,
2013-11-01 12:27:00,75.6,70.8,29.86,SW,222,6.8,12.7,85,0.00,OVC,,0.10,0.0,WeatherDisplay:10.37,2013-11-01 16:27:00,
2013-11-01 12:32:00,75.8,71.0,29.85,SSW,195,5.7,9.2,85,0.00,OVC,,0.10,0.0,WeatherDisplay:10.37,2013-11-01 16:32:00,
2013-11-01 12:37:00,75.9,71.1,29.84,South,182,4.6,11.5,85,0.00,OVC,,0.10,0.0,WeatherDisplay:10.37,2013-11-01 16:37:00,
2013-11-01 12:42:00,76.1,70.9,29.84,SW,218,4.2,11.5,84,0.00,OVC,,0.10,0.0,WeatherDisplay:10.37,2013-11-01 16:42:00,
2013-11-01 12:47:00,76.2,71.0,29.84,South,169,4.7,9.2,84,0.00,OVC,,0.10,0.0,WeatherDisplay:10.37,2013-11-01 16:47:00,
2013-11-01 12:52:00,76.4,71.2,29.83,SSE,168,3.8,6.9,84,0.00,OVC,,0.10,0.0,WeatherDisplay:10.37,2013-11-01 16:52:00,
2013-11-01 12:57:00,76.5,71.3,29.83,South,180,6.5,11.5,84,0.00,OVC,,0.10,0.0,WeatherDisplay:10.37,2013-11-01 16:57:00,
2013-11-01 13:02:00,76.7,71.1,29.83,SSW,200,5.1,11.5,83,0.00,OVC,,0.10,0.0,WeatherDisplay:10.37,2013-11-01 17:02:00,
2013-11-01 13:07:00,76.8,71.2,29.83,SSE,160,3.4,6.0,83,0.00,OVC,,0.10,0.0,WeatherDisplay:10.37,2013-11-01 17:07:00,
2013-11-01 13:12:00,76.9,71.0,29.82,SW,214,7.5,12.7,82,0.00,OVC,,0.10,0.0,WeatherDisplay:10.37,2013-11-01 17:12:00,
2013-11-01 13:17:00,77.0,71.1,29.82,SW,216,4.1,5.0,82,0.00,OVC,,0.10,0.0,WeatherDisplay:10.37,2013-11-01 17:17:00,
2013-11-01 13:22:00,77.1,71.2,29.82,SW,227,5.3,10.4,82,0.00,OVC,,0.10,0.0,WeatherDisplay:10.37,2013-11-01 17:22:00,
2013-11-01 13:27:00,77.3,71.4,29.82,SW,234,2.0,5.0,82,0.00,OVC,,0.10,0.0,WeatherDisplay:10.37,2013-11-01 17:27:00,
2013-11-01 13:32:00,77.5,71.2,29.81,SSW,200,4.9,12.7,81,0.00,OVC,,0.10,0.0,WeatherDisplay:10.37,2013-11-01 17:32:00,
2013-11-01 13:37:00,77.7,71.0,29.81,South,174,5.4,13.0,80,0.00,OVC,,0.10,0.0,WeatherDisplay:10.37,2013-11-01 17:37:00,
2013-11-01 13:42:00,77.8,71.1,29.81,SSW,195,3.0,12.7,80,0.00,OVC,,0.10,0.0,WeatherDisplay:10.37,2013-11-01 17:42:00,
2013-11-01 13:47:00,78.1,71.4,29.81,SW,232,2.4,7.0,80,0.00,OVC,,0.10,0.0,WeatherDisplay:10.37,2013-11-01 17:47:00,
2013-11-01 13:52:00,78.4,71.3,29.81,SW,231,2.4,5.8,79,0.00,OVC,,0.10,0.0,WeatherDisplay:10.37,2013-11-01 17:52:00,
2013-11-01 13:57:00,78.6,71.5,29.81,WSW,242,3.4,6.9,79,0.00,OVC,,0.10,0.0,WeatherDisplay:10.37,2013-11-01 17:57:00,
2013-11-01 14:02:00,78.6,70.8,29.81,SSW,206,8.7,13.8,77,0.00,OVC,,0.10,0.0,WeatherDisplay:10.37,2013-11-01 18:02:00,
2013-11-01 14:07:00,78.5,71.1,29.80,WSW,244,6.6,13.8,78,0.00,OVC,,0.10,0.0,WeatherDisplay:10.37,2013-11-01 18:07:00,
2013-11-01 14:12:00,78.4,70.6,29.80,SSE,164,3.3,13.8,77,0.00,OVC,,0.10,0.0,WeatherDisplay:10.37,2013-11-01 18:12:00,
2013-11-01 14:17:00,78.7,70.9,29.80,WNW,290,7.5,16.1,77,0.00,OVC,,0.10,0.0,WeatherDisplay:10.37,2013-11-01 18:17:00,
2013-11-01 14:22:00,78.9,70.7,29.79,South,175,5.2,11.5,76,0.00,OVC,,0.10,0.0,WeatherDisplay:10.37,2013-11-01 18:22:00,
2013-11-01 14:27:00,79.0,70.8,29.79,SSW,199,5.4,8.1,76,0.00,OVC,,0.10,0.0,WeatherDisplay:10.37,2013-11-01 18:27:00,
2013-11-01 14:32:00,79.0,70.8,29.79,South,171,6.9,11.0,76,0.00,OVC,,0.10,0.0,WeatherDisplay:10.37,2013-11-01 18:32:00,
2013-11-01 14:37:00,79.0,70.8,29.79,SW,215,6.4,15.0,76,0.00,OVC,,0.10,0.0,WeatherDisplay:10.37,2013-11-01 18:37:00,
2013-11-01 14:42:00,79.0,70.8,29.79,SW,221,6.6,8.1,76,0.00,OVC,,0.10,0.0,WeatherDisplay:10.37,2013-11-01 18:42:00,
2013-11-01 14:47:00,79.1,70.9,29.79,SW,214,5.9,9.2,76,0.00,OVC,,0.10,0.0,WeatherDisplay:10.37,2013-11-01 18:47:00,
2013-11-01 14:52:00,79.3,70.7,29.79,SSE,158,4.8,8.1,75,0.00,OVC,,0.10,0.0,WeatherDisplay:10.37,2013-11-01 18:52:00,
2013-11-01 14:57:00,79.3,70.7,29.79,SSW,207,6.7,10.4,75,0.00,OVC,,0.10,0.0,WeatherDisplay:10.37,2013-11-01 18:57:00,
2013-11-01 15:02:00,79.2,70.6,29.79,SW,227,7.9,11.5,75,0.00,OVC,,0.10,0.0,WeatherDisplay:10.37,2013-11-01 19:02:00,
2013-11-01 15:07:00,79.2,70.6,29.78,SSE,163,11.4,15.0,75,0.00,OVC,,0.10,0.0,WeatherDisplay:10.37,2013-11-01 19:07:00,
2013-11-01 15:12:00,78.9,70.3,29.78,South,176,7.6,13.0,75,0.00,OVC,,0.10,0.0,WeatherDisplay:10.37,2013-11-01 19:12:00,
2013-11-01 15:17:00,78.6,70.0,29.78,SSE,157,6.6,11.5,75,0.00,OVC,,0.10,0.0,WeatherDisplay:10.37,2013-11-01 19:17:00,
2013-11-01 15:22:00,78.5,70.3,29.77,SSW,198,4.4,9.2,76,0.00,OVC,,0.10,0.0,WeatherDisplay:10.37,2013-11-01 19:22:00,
2013-11-01 15:27:00,78.6,70.8,29.77,SSW,202,3.2,9.2,77,0.00,OVC,,0.10,0.0,WeatherDisplay:10.37,2013-11-01 19:27:00,
2013-11-01 15:32:00,78.7,70.9,29.77,South,178,2.9,8.1,77,0.00,OVC,,0.10,0.0,WeatherDisplay:10.37,2013-11-01 19:32:00,
2013-11-01 15:37:00,78.7,70.5,29.76,West,265,6.5,8.1,76,0.00,OVC,,0.10,0.0,WeatherDisplay:10.37,2013-11-01 19:37:00,
2013-11-01 15:43:00,78.7,70.5,29.77,SW,217,4.5,8.1,76,0.00,OVC,,0.10,0.0,WeatherDisplay:10.37,2013-11-01 19:43:00,
2013-11-01 15:48:00,78.5,69.9,29.77,SSW,213,3.4,7.0,75,0.00,OVC,,0.10,0.0,WeatherDisplay:10.37,2013-11-01 19:48:00,
2013-11-01 15:53:00,78.3,69.7,29.77,South,177,4.2,8.1,75,0.00,OVC,,0.10,0.0,WeatherDisplay:10.37,2013-11-01 19:53:00,
2013-11-01 15:58:00,78.2,70.0,29.76,SSW,202,3.8,6.9,76,0.00,OVC,,0.10,0.0,WeatherDisplay:10.37,2013-11-01 19:58:00,
2013-11-01 16:03:00,78.2,70.0,29.76,WSW,242,5.7,9.2,76,0.00,OVC,,0.10,0.0,WeatherDisplay:10.37,2013-11-01 20:03:00,
2013-11-01 16:08:00,78.1,69.9,29.76,SW,230,6.8,10.4,76,0.00,OVC,,0.10,0.0,WeatherDisplay:10.37,2013-11-01 20:08:00,
2013-11-01 16:13:00,77.9,69.7,29.75,SSW,213,5.9,11.5,76,0.00,OVC,,0.10,0.0,WeatherDisplay:10.37,2013-11-01 20:13:00,
2013-11-01 16:18:00,77.6,69.8,29.75,SW,220,4.5,8.1,77,0.00,OVC,,0.10,0.0,WeatherDisplay:10.37,2013-11-01 20:18:00,
2013-11-01 16:23:00,77.4,69.6,29.75,South,189,6.6,12.7,77,0.00,OVC,,0.10,0.0,WeatherDisplay:10.37,2013-11-01 20:23:00,
2013-11-01 16:28:00,77.2,69.4,29.75,South,173,4.9,11.5,77,0.00,OVC,,0.10,0.0,WeatherDisplay:10.37,2013-11-01 20:28:00,
2013-11-01 16:33:00,77.0,69.2,29.75,West,259,5.9,9.2,77,0.00,OVC,,0.10,0.0,WeatherDisplay:10.37,2013-11-01 20:33:00,
2013-11-01 16:38:00,77.1,69.7,29.75,SW,222,4.3,12.0,78,0.00,OVC,,0.10,0.0,WeatherDisplay:10.37,2013-11-01 20:38:00,
2013-11-01 16:43:00,77.1,69.7,29.76,SW,219,5.1,9.2,78,0.00,OVC,,0.10,0.0,WeatherDisplay:10.37,2013-11-01 20:43:00,
2013-11-01 16:48:00,77.1,69.7,29.77,ESE,106,4.5,10.4,78,0.00,OVC,,0.10,0.0,WeatherDisplay:10.37,2013-11-01 20:48:00,
2013-11-01 16:53:00,76.8,69.0,29.77,WSW,244,7.5,13.8,77,0.00,OVC,,0.10,0.0,WeatherDisplay:10.37,2013-11-01 20:53:00,
2013-11-01 16:58:00,76.6,69.2,29.76,WSW,239,7.4,11.5,78,0.00,OVC,,0.10,0.0,WeatherDisplay:10.37,2013-11-01 20:58:00,
2013-11-01 17:03:00,76.3,68.9,29.76,South,180,6.3,11.5,78,0.00,OVC,,0.10,0.0,WeatherDisplay:10.37,2013-11-01 21:03:00,
2013-11-01 17:08:00,76.1,68.7,29.76,South,179,8.4,10.4,78,0.00,OVC,,0.10,0.0,WeatherDisplay:10.37,2013-11-01 21:08:00,
2013-11-01 17:13:00,75.9,68.5,29.76,South,169,4.5,15.0,78,0.00,OVC,,0.10,0.0,WeatherDisplay:10.37,2013-11-01 21:13:00,
2013-11-01 17:18:00,75.7,68.7,29.76,SSE,165,5.7,11.5,79,0.00,OVC,,0.10,0.0,WeatherDisplay:10.37,2013-11-01 21:18:00,
2013-11-01 17:23:00,75.6,68.6,29.76,WSW,248,5.1,8.1,79,0.00,OVC,,0.10,0.0,WeatherDisplay:10.37,2013-11-01 21:23:00,
2013-11-01 17:28:00,75.4,68.4,29.76,SW,235,5.9,9.2,79,0.00,OVC,,0.10,0.0,WeatherDisplay:10.37,2013-11-01 21:28:00,
2013-11-01 17:33:00,75.3,68.7,29.76,WSW,246,2.5,5.8,80,0.00,OVC,,0.10,0.0,WeatherDisplay:10.37,2013-11-01 21:33:00,
2013-11-01 17:38:00,75.1,68.5,29.75,South,187,3.0,9.2,80,0.00,OVC,,0.10,0.0,WeatherDisplay:10.37,2013-11-01 21:38:00,
2013-11-01 17:43:00,75.0,68.4,29.75,SW,234,3.3,11.5,80,0.00,OVC,,0.10,0.0,WeatherDisplay:10.37,2013-11-01 21:43:00,
2013-11-01 17:48:00,75.0,68.8,29.76,SSW,209,2.6,6.9,81,0.00,OVC,,0.10,0.0,WeatherDisplay:10.37,2013-11-01 21:48:00,
2013-11-01 17:53:00,74.9,68.7,29.75,SW,215,5.2,11.5,81,0.00,OVC,,0.10,0.0,WeatherDisplay:10.37,2013-11-01 21:53:00,
2013-11-01 17:58:00,74.9,68.7,29.76,SSW,213,1.6,5.8,81,0.00,OVC,,0.10,0.0,WeatherDisplay:10.37,2013-11-01 21:58:00,
2013-11-01 18:03:00,74.9,68.7,29.76,SW,215,7.6,12.7,81,0.00,OVC,,0.10,0.0,WeatherDisplay:10.37,2013-11-01 22:03:00,
2013-11-01 18:08:00,74.9,68.7,29.76,SW,228,4.7,12.7,81,0.00,OVC,,0.10,0.0,WeatherDisplay:10.37,2013-11-01 22:08:00,
2013-11-01 18:13:00,74.9,68.7,29.76,WSW,247,5.6,11.5,81,0.00,OVC,,0.10,0.0,WeatherDisplay:10.37,2013-11-01 22:13:00,
2013-11-01 18:18:00,74.9,68.7,29.76,SW,233,2.6,6.9,81,0.00,OVC,,0.10,0.0,WeatherDisplay:10.37,2013-11-01 22:18:00,
2013-11-01 18:23:00,74.9,68.7,29.76,SSW,205,3.1,4.6,81,0.00,OVC,,0.10,0.0,WeatherDisplay:10.37,2013-11-01 22:23:00,
2013-11-01 18:28:00,74.9,68.7,29.76,South,188,4.0,6.0,81,0.00,OVC,,0.10,0.0,WeatherDisplay:10.37,2013-11-01 22:28:00,
2013-11-01 18:33:00,74.9,68.7,29.76,SSW,207,2.4,8.1,81,0.00,OVC,,0.10,0.0,WeatherDisplay:10.37,2013-11-01 22:33:00,
2013-11-01 18:38:00,74.9,68.7,29.76,SSW,207,7.4,12.7,81,0.00,OVC,,0.10,0.0,WeatherDisplay:10.37,2013-11-01 22:38:00,
2013-11-01 18:43:00,74.9,68.7,29.76,SSW,196,7.5,12.7,81,0.00,OVC,,0.10,0.0,WeatherDisplay:10.37,2013-11-01 22:43:00,
2013-11-01 18:48:00,75.0,68.4,29.76,South,186,5.8,11.5,80,0.00,CLR,OVC,0.10,0.0,WeatherDisplay:10.37,2013-11-01 22:48:00,
2013-11-01 18:53:00,75.1,68.5,29.76,South,178,6.0,11.5,80,0.00,CLR,OVC,0.10,0.0,WeatherDisplay:10.37,2013-11-01 22:53:00,
2013-11-01 18:58:00,75.1,68.5,29.77,SW,223,6.0,12.7,80,0.00,CLR,OVC,0.10,0.0,WeatherDisplay:10.37,2013-11-01 22:58:00,
2013-11-01 19:03:00,75.1,68.5,29.77,South,184,7.5,13.0,80,0.00,CLR,OVC,0.10,0.0,WeatherDisplay:10.37,2013-11-01 23:03:00,
2013-11-01 19:08:00,75.2,68.6,29.77,SSW,197,6.0,12.7,80,0.00,CLR,OVC,0.10,0.0,WeatherDisplay:10.37,2013-11-01 23:08:00,
2013-11-01 19:13:00,75.3,68.3,29.77,SSW,208,2.7,10.4,79,0.00,CLR,OVC,0.10,0.0,WeatherDisplay:10.37,2013-11-01 23:13:00,
2013-11-01 19:18:00,75.3,68.3,29.77,South,191,5.2,13.0,79,0.00,CLR,OVC,0.10,0.0,WeatherDisplay:10.37,2013-11-01 23:18:00,
2013-11-01 19:23:00,75.3,68.3,29.78,WSW,244,4.8,10.4,79,0.00,CLR,OVC,0.10,0.0,WeatherDisplay:10.37,2013-11-01 23:23:00,
2013-11-01 19:28:00,75.3,68.3,29.78,SSE,166,8.8,11.5,79,0.00,CLR,OVC,0.10,0.0,WeatherDisplay:10.37,2013-11-01 23:28:00,
2013-11-01 19:33:00,75.3,68.3,29.78,SW,225,3.5,11.5,79,0.00,CLR,OVC,0.10,0.0,WeatherDisplay:10.37,2013-11-01 23:33:00,
2013-11-01 19:38:00,75.3,68.3,29.78,SE,135,4.8,12.0,79,0.00,CLR,OVC,0.10,0.0,WeatherDisplay:10.37,2013-11-01 23:38:00,
2013-11-01 19:43:00,75.3,68.3,29.78,South,188,8.3,17.3,79,0.00,CLR,OVC,0.10,0.0,WeatherDisplay:10.37,2013-11-01 23:43:00,
2013-11-01 19:48:00,75.3,68.7,29.78,SW,230,2.9,11.5,80,0.00,CLR,OVC,0.10,0.0,WeatherDisplay:10.37,2013-11-01 23:48:00,
2013-11-01 19:53:00,75.2,68.6,29.78,SW,214,3.8,8.1,80,0.00,CLR,OVC,0.10,0.0,WeatherDisplay:10.37,2013-11-01 23:53:00,
2013-11-01 19:58:00,75.2,68.6,29.77,NW,305,3.6,10.4,80,0.00,CLR,OVC,0.10,0.0,WeatherDisplay:10.37,2013-11-01 23:58:00,
2013-11-01 20:04:00,75.2,68.6,29.77,SSW,207,9.6,17.3,80,0.00,CLR,OVC,0.10,0.0,WeatherDisplay:10.37,2013-11-02 00:04:00,
2013-11-01 20:08:00,75.4,68.8,29.76,SW,215,6.1,11.5,80,0.00,CLR,OVC,0.10,0.0,WeatherDisplay:10.37,2013-11-02 00:08:00,
2013-11-01 20:14:00,75.4,69.2,29.76,SW,223,8.0,13.8,81,0.00,CLR,OVC,0.10,0.0,WeatherDisplay:10.37,2013-11-02 00:14:00,
2013-11-01 20:19:00,75.5,69.3,29.76,WSW,244,5.4,12.7,81,0.00,CLR,OVC,0.10,0.0,WeatherDisplay:10.37,2013-11-02 00:19:00,
2013-11-01 20:24:00,75.5,69.3,29.76,SW,229,3.7,9.2,81,0.00,CLR,OVC,0.10,0.0,WeatherDisplay:10.37,2013-11-02 00:24:00,
2013-11-01 20:29:00,75.5,69.3,29.76,South,184,6.9,16.1,81,0.00,CLR,OVC,0.10,0.0,WeatherDisplay:10.37,2013-11-02 00:29:00,
2013-11-01 20:34:00,75.6,69.4,29.77,South,186,4.6,10.4,81,0.00,CLR,OVC,0.10,0.0,WeatherDisplay:10.37,2013-11-02 00:34:00,
2013-11-01 20:39:00,75.6,69.4,29.77,SSW,205,1.7,6.9,81,0.00,CLR,OVC,0.10,0.0,WeatherDisplay:10.37,2013-11-02 00:39:00,
2013-11-01 20:44:00,75.6,69.4,29.77,SW,225,8.9,19.6,81,0.00,CLR,OVC,0.10,0.0,WeatherDisplay:10.37,2013-11-02 00:44:00,
2013-11-01 20:49:00,75.6,69.4,29.77,SSE,158,8.9,18.4,81,0.00,CLR,OVC,0.10,0.0,WeatherDisplay:10.37,2013-11-02 00:49:00,
2013-11-01 20:54:00,75.7,69.5,29.77,SSW,200,6.5,16.1,81,0.00,CLR,OVC,0.10,0.0,WeatherDisplay:10.37,2013-11-02 00:54:00,
2013-11-01 20:59:00,75.7,69.8,29.77,SW,222,4.1,9.2,82,0.00,CLR,OVC,0.10,0.0,WeatherDisplay:10.37,2013-11-02 00:59:00,
2013-11-01 21:04:00,75.7,69.8,29.76,South,180,6.3,9.2,82,0.00,CLR,OVC,0.10,0.0,WeatherDisplay:10.37,2013-11-02 01:04:00,
2013-11-01 21:09:00,75.7,69.8,29.76,SW,231,9.8,19.6,82,0.00,CLR,OVC,0.10,0.0,WeatherDisplay:10.37,2013-11-02 01:09:00,
2013-11-01 21:14:00,75.7,69.8,29.76,SSE,161,3.8,11.5,82,0.00,CLR,OVC,0.10,0.0,WeatherDisplay:10.37,2013-11-02 01:14:00,
2013-11-01 21:19:00,75.7,69.8,29.76,NW,306,6.0,12.7,82,0.00,CLR,OVC,0.10,0.0,WeatherDisplay:10.37,2013-11-02 01:19:00,
2013-11-01 21:24:00,75.7,69.8,29.75,SSW,200,3.7,6.9,82,0.00,CLR,OVC,0.10,0.0,WeatherDisplay:10.37,2013-11-02 01:24:00,
2013-11-01 21:29:00,75.6,69.7,29.75,SSW,209,8.9,11.5,82,0.00,CLR,OVC,0.10,0.0,WeatherDisplay:10.37,2013-11-02 01:29:00,
2013-11-01 21:34:00,75.7,69.8,29.75,SSE,168,6.8,11.5,82,0.00,CLR,OVC,0.10,0.0,WeatherDisplay:10.37,2013-11-02 01:34:00,
2013-11-01 21:39:00,75.7,69.8,29.75,West,263,5.9,11.5,82,0.00,CLR,OVC,0.10,0.0,WeatherDisplay:10.37,2013-11-02 01:39:00,
2013-11-01 21:44:00,75.7,69.8,29.76,South,183,8.6,17.3,82,0.00,CLR,OVC,0.10,0.0,WeatherDisplay:10.37,2013-11-02 01:44:00,
2013-11-01 21:49:00,75.8,69.9,29.76,SW,217,7.8,12.7,82,0.00,CLR,OVC,0.10,0.0,WeatherDisplay:10.37,2013-11-02 01:49:00,
2013-11-01 21:54:00,75.8,69.9,29.76,SSW,205,7.5,11.5,82,0.00,CLR,OVC,0.10,0.0,WeatherDisplay:10.37,2013-11-02 01:54:00,
2013-11-01 21:59:00,75.9,70.0,29.76,SW,225,2.1,10.4,82,0.00,CLR,OVC,0.10,0.0,WeatherDisplay:10.37,2013-11-02 01:59:00,
2013-11-01 22:04:00,75.9,70.0,29.76,SSE,160,3.7,9.2,82,0.00,CLR,OVC,0.10,0.0,WeatherDisplay:10.37,2013-11-02 02:04:00,
2013-11-01 22:09:00,75.9,70.0,29.76,South,185,8.2,13.8,82,0.00,CLR,OVC,0.10,0.0,WeatherDisplay:10.37,2013-11-02 02:09:00,
2013-11-01 22:14:00,76.0,70.1,29.76,SW,221,5.8,11.5,82,0.00,CLR,OVC,0.10,0.0,WeatherDisplay:10.37,2013-11-02 02:14:00,
2013-11-01 22:19:00,76.0,70.1,29.76,SSW,194,4.9,7.0,82,0.00,CLR,OVC,0.10,0.0,WeatherDisplay:10.37,2013-11-02 02:19:00,
2013-11-01 22:24:00,76.1,70.2,29.76,South,184,4.2,11.0,82,0.00,CLR,OVC,0.10,0.0,WeatherDisplay:10.37,2013-11-02 02:24:00,
2013-11-01 22:29:00,76.1,70.2,29.76,WSW,243,5.6,9.2,82,0.00,CLR,OVC,0.10,0.0,WeatherDisplay:10.37,2013-11-02 02:29:00,
2013-11-01 22:34:00,76.0,70.1,29.76,SSW,210,2.2,7.0,82,0.00,CLR,OVC,0.10,0.0,WeatherDisplay:10.37,2013-11-02 02:34:00,
2013-11-01 22:39:00,76.0,70.1,29.75,SSW,202,6.6,13.8,82,0.00,CLR,OVC,0.10,0.0,WeatherDisplay:10.37,2013-11-02 02:39:00,
2013-11-01 22:44:00,76.0,70.1,29.75,SW,214,4.0,10.4,82,0.00,CLR,OVC,0.10,0.0,WeatherDisplay:10.37,2013-11-02 02:44:00,
2013-11-01 22:49:00,76.0,70.1,29.75,SW,217,3.1,10.4,82,0.00,CLR,OVC,0.10,0.0,WeatherDisplay:10.37,2013-11-02 02:49:00,
2013-11-01 22:54:00,76.0,70.1,29.75,South,171,6.0,11.5,82,0.00,CLR,OVC,0.10,0.0,WeatherDisplay:10.37,2013-11-02 02:54:00,
2013-11-01 22:59:00,76.1,70.2,29.74,SW,229,5.9,12.7,82,0.00,CLR,OVC,0.10,0.0,WeatherDisplay:10.37,2013-11-02 02:59:00,
2013-11-01 23:04:00,75.7,70.2,29.74,South,178,3.8,10.4,83,0.00,CLR,OVC,0.10,0.0,WeatherDisplay:10.37,2013-11-02 03:04:00,
2013-11-01 23:10:00,75.5,70.0,29.74,SSW,204,8.1,13.8,83,0.00,CLR,OVC,0.10,0.0,WeatherDisplay:10.37,2013-11-02 03:10:00,
2013-11-01 23:15:00,75.6,70.1,29.74,SSW,212,9.1,14.0,83,0.00,CLR,OVC,0.10,0.0,WeatherDisplay:10.37,2013-11-02 03:15:00,
2013-11-01 23:20:00,75.6,70.1,29.73,SW,217,7.2,18.4,83,0.00,CLR,OVC,0.10,0.0,WeatherDisplay:10.37,2013-11-02 03:20:00,
2013-11-01 23:25:00,75.7,69.8,29.73,SSW,208,3.2,8.1,82,0.00,CLR,OVC,0.10,0.0,WeatherDisplay:10.37,2013-11-02 03:25:00,
2013-11-01 23:30:00,75.7,69.8,29.73,SW,221,5.5,10.4,82,0.00,CLR,OVC,0.10,0.0,WeatherDisplay:10.37,2013-11-02 03:30:00,
2013-11-01 23:35:00,75.8,69.6,29.73,SW,230,9.7,16.1,81,0.00,CLR,OVC,0.10,0.0,WeatherDisplay:10.37,2013-11-02 03:35:00,
2013-11-01 23:40:00,75.9,69.6,29.73,WSW,238,6.5,11.5,81,0.00,CLR,OVC,0.10,0.0,WeatherDisplay:10.37,2013-11-02 03:40:00,
2013-11-01 23:45:00,75.9,69.6,29.73,WSW,242,6.3,13.8,81,0.00,CLR,OVC,0.10,0.0,WeatherDisplay:10.37,2013-11-02 03:45:00,
2013-11-01 23:50:00,75.8,69.9,29.73,SW,217,4.6,11.5,82,0.00,CLR,OVC,0.10,0.0,WeatherDisplay:10.37,2013-11-02 03:50:00,
2013-11-01 23:55:00,75.7,70.2,29.73,SSW,208,4.0,6.9,83,0.00,CLR,OVC,0.10,0.0,WeatherDisplay:10.37,2013-11-02 03:55:00,